createdAt,value
2022-07-26T00:01:38.950Z,62.40
2022-07-26T00:04:06.170Z,62.50
2022-07-26T00:06:33.140Z,62.50
2022-07-26T00:09:00.011Z,62.50
2022-07-26T00:11:27.151Z,62.50
2022-07-26T00:13:54.486Z,62.50
2022-07-26T00:16:21.545Z,62.50
2022-07-26T00:18:48.429Z,62.50
2022-07-26T00:21:15.342Z,62.50
2022-07-26T00:23:42.217Z,62.40
2022-07-26T00:26:09.222Z,62.50
2022-07-26T00:28:36.400Z,62.50
2022-07-26T00:31:03.911Z,62.50
2022-07-26T00:33:30.988Z,62.50
2022-07-26T00:35:57.871Z,62.50
2022-07-26T00:38:24.741Z,62.50
2022-07-26T00:40:51.741Z,62.50
2022-07-26T00:43:18.633Z,62.50
2022-07-26T00:45:45.639Z,62.50
2022-07-26T00:48:12.556Z,62.50
2022-07-26T00:50:39.413Z,62.50
2022-07-26T00:53:06.322Z,62.40
2022-07-26T00:55:33.400Z,62.40
2022-07-26T00:58:03.441Z,62.30
2022-07-26T01:00:30.672Z,62.30
2022-07-26T01:03:00.401Z,62.20
2022-07-26T01:05:27.947Z,62.20
2022-07-26T01:07:55.476Z,62.20
2022-07-26T01:10:22.345Z,62.20
2022-07-26T01:12:49.252Z,62.20
2022-07-26T01:15:16.784Z,62.30
2022-07-26T01:17:44.553Z,62.30
2022-07-26T01:20:12.884Z,62.30
2022-07-26T01:22:39.963Z,62.30
2022-07-26T01:25:07.850Z,62.40
2022-07-26T01:27:39.148Z,62.40
2022-07-26T01:30:09.127Z,62.30
2022-07-26T01:32:36.261Z,62.40
2022-07-26T01:35:04.926Z,62.30
2022-07-26T01:37:31.791Z,62.30
2022-07-26T01:39:58.671Z,62.30
2022-07-26T01:42:25.620Z,62.30
2022-07-26T01:44:52.577Z,62.30
2022-07-26T01:47:19.545Z,62.30
2022-07-26T01:49:46.423Z,62.30
2022-07-26T01:52:13.262Z,62.30
2022-07-26T01:54:40.183Z,62.30
2022-07-26T01:57:07.142Z,62.20
2022-07-26T01:59:34.113Z,62.30
2022-07-26T02:02:01.141Z,62.30
2022-07-26T02:04:46.600Z,62.40
2022-07-26T02:07:13.541Z,62.40
2022-07-26T02:09:40.689Z,62.40
2022-07-26T02:14:56.105Z,62.30
2022-07-26T02:17:23.220Z,62.30
2022-07-26T02:19:50.365Z,62.20
2022-07-26T02:22:17.235Z,62.30
2022-07-26T02:24:44.114Z,62.20
2022-07-26T02:27:10.981Z,62.20
2022-07-26T02:29:37.919Z,62.10
2022-07-26T02:32:05.469Z,62.20
2022-07-26T02:34:34.060Z,62.20
2022-07-26T02:37:01.642Z,62.20
2022-07-26T02:39:28.745Z,62.00
2022-07-26T02:42:00.237Z,62.10
2022-07-26T02:44:28.010Z,62.00
2022-07-26T02:46:55.038Z,62.10
2022-07-26T02:49:22.251Z,62.10
2022-07-26T02:51:49.122Z,62.10
2022-07-26T02:54:16.204Z,62.10
2022-07-26T02:56:43.039Z,62.10
2022-07-26T02:59:09.869Z,62.30
2022-07-26T03:01:38.999Z,62.10
2022-07-26T03:04:07.822Z,62.20
2022-07-26T03:06:34.953Z,62.00
2022-07-26T03:09:01.791Z,62.00
2022-07-26T03:11:28.691Z,62.00
2022-07-26T03:13:55.543Z,62.00
2022-07-26T03:16:26.117Z,62.10
2022-07-26T03:18:56.778Z,62.10
2022-07-26T03:21:23.890Z,62.00
2022-07-26T03:23:50.718Z,62.10
2022-07-26T03:26:17.649Z,62.30
2022-07-26T03:28:44.666Z,62.40
2022-07-26T03:31:12.985Z,62.50
2022-07-26T03:33:40.760Z,62.40
2022-07-26T03:36:11.528Z,61.90
2022-07-26T03:38:42.463Z,62.00
2022-07-26T03:41:09.293Z,62.20
2022-07-26T03:43:40.597Z,62.20
2022-07-26T03:46:07.545Z,62.20
2022-07-26T03:48:34.491Z,62.30
2022-07-26T03:51:01.498Z,62.40
2022-07-26T03:53:28.375Z,62.30
2022-07-26T03:56:14.876Z,62.30
2022-07-26T03:58:42.238Z,62.20
2022-07-26T04:01:09.092Z,62.20
2022-07-26T04:03:36.241Z,62.20
2022-07-26T04:06:03.255Z,62.10
2022-07-26T04:08:30.613Z,62.10
2022-07-26T04:10:57.564Z,62.30
2022-07-26T04:13:24.414Z,62.30
2022-07-26T04:15:51.623Z,62.30
2022-07-26T04:18:18.876Z,62.30
2022-07-26T04:20:45.840Z,62.20
2022-07-26T04:23:12.856Z,62.20
2022-07-26T04:25:41.163Z,62.30
2022-07-26T04:28:09.345Z,62.20
2022-07-26T04:30:36.493Z,62.20
2022-07-26T04:33:03.847Z,62.10
2022-07-26T04:35:30.938Z,62.10
2022-07-26T04:37:58.000Z,62.10
2022-07-26T04:40:27.884Z,62.20
2022-07-26T04:42:56.405Z,62.10
2022-07-26T04:45:23.359Z,62.10
2022-07-26T04:47:51.229Z,62.10
2022-07-26T04:50:22.176Z,62.10
2022-07-26T04:52:50.175Z,62.10
2022-07-26T04:55:18.095Z,62.10
2022-07-26T04:57:45.184Z,62.10
2022-07-26T05:00:22.002Z,62.00
2022-07-26T05:02:51.503Z,61.90
2022-07-26T05:05:18.432Z,61.70
2022-07-26T05:07:46.708Z,61.70
2022-07-26T05:10:14.660Z,62.00
2022-07-26T05:12:41.525Z,61.70
2022-07-26T05:15:13.838Z,61.80
2022-07-26T05:17:42.973Z,61.70
2022-07-26T05:20:11.962Z,61.70
2022-07-26T05:22:38.931Z,61.70
2022-07-26T05:25:06.546Z,61.70
2022-07-26T05:27:33.926Z,61.70
2022-07-26T05:30:01.074Z,61.60
2022-07-26T05:32:30.657Z,61.60
2022-07-26T05:34:57.542Z,61.60
2022-07-26T05:37:24.370Z,61.60
2022-07-26T05:39:51.222Z,61.70
2022-07-26T05:42:18.130Z,61.70
2022-07-26T05:44:44.984Z,61.70
2022-07-26T05:47:11.997Z,61.60
2022-07-26T05:49:40.493Z,61.70
2022-07-26T05:52:08.413Z,61.70
2022-07-26T05:54:35.625Z,61.60
2022-07-26T05:57:02.732Z,61.60
2022-07-26T05:59:29.860Z,61.70
2022-07-26T06:01:57.512Z,61.70
2022-07-26T06:04:28.367Z,61.60
2022-07-26T06:06:56.465Z,61.60
2022-07-26T06:09:27.432Z,61.50
2022-07-26T06:11:55.903Z,61.50
2022-07-26T06:14:23.430Z,61.50
2022-07-26T06:16:50.883Z,61.50
2022-07-26T06:19:18.021Z,61.50
2022-07-26T06:21:47.872Z,61.50
2022-07-26T06:24:15.154Z,61.50
2022-07-26T06:26:42.233Z,61.50
2022-07-26T06:29:09.461Z,61.60
2022-07-26T06:31:36.673Z,61.60
2022-07-26T06:34:04.035Z,61.50
2022-07-26T06:36:31.411Z,61.50
2022-07-26T06:38:58.821Z,61.50
2022-07-26T06:41:26.168Z,61.50
2022-07-26T06:43:53.302Z,61.70
2022-07-26T06:46:21.477Z,61.80
2022-07-26T06:48:53.151Z,61.80
2022-07-26T06:51:24.713Z,61.70
2022-07-26T06:53:51.832Z,61.70
2022-07-26T06:56:19.686Z,61.60
2022-07-26T06:58:47.315Z,61.80
2022-07-26T07:01:51.732Z,61.80
2022-07-26T07:04:02.190Z,61.70
2022-07-26T07:06:29.166Z,61.80
2022-07-26T07:08:56.235Z,61.60
2022-07-26T07:11:23.647Z,61.60
2022-07-26T07:13:50.880Z,61.50
2022-07-26T07:16:17.903Z,61.50
2022-07-26T07:18:45.198Z,61.50
2022-07-26T07:21:12.055Z,61.30
2022-07-26T07:23:39.137Z,61.30
2022-07-26T07:26:06.495Z,61.20
2022-07-26T07:28:38.707Z,61.40
2022-07-26T07:31:06.655Z,61.40
2022-07-26T07:33:52.715Z,61.40
2022-07-26T07:36:22.107Z,61.40
2022-07-26T07:38:50.031Z,61.40
2022-07-26T07:41:19.058Z,61.70
2022-07-26T07:43:46.129Z,61.70
2022-07-26T07:46:13.853Z,61.60
2022-07-26T07:48:46.789Z,61.60
2022-07-26T07:51:15.009Z,61.60
2022-07-26T07:53:43.265Z,61.60
2022-07-26T07:56:24.070Z,61.70
2022-07-26T07:58:52.210Z,61.70
2022-07-26T08:01:19.544Z,61.60
2022-07-26T08:03:50.557Z,61.50
2022-07-26T08:06:18.000Z,61.60
2022-07-26T08:08:45.213Z,61.50
2022-07-26T08:11:16.192Z,61.40
2022-07-26T08:13:47.534Z,61.30
2022-07-26T08:16:15.924Z,61.10
2022-07-26T08:18:56.031Z,61.10
2022-07-26T08:21:24.648Z,61.00
2022-07-26T08:23:54.817Z,61.10
2022-07-26T08:26:22.038Z,61.00
2022-07-26T08:28:58.283Z,61.10
2022-07-26T08:31:28.541Z,61.20
2022-07-26T08:33:56.037Z,61.10
2022-07-26T08:36:23.267Z,61.10
2022-07-26T08:38:50.211Z,61.20
2022-07-26T08:41:18.170Z,61.20
2022-07-26T08:43:52.102Z,61.10
2022-07-26T08:46:26.402Z,61.20
2022-07-26T08:48:57.787Z,61.20
2022-07-26T08:51:26.087Z,61.20
2022-07-26T08:54:00.564Z,61.20
2022-07-26T08:56:30.924Z,61.30
2022-07-26T08:58:57.882Z,61.30
2022-07-26T09:01:24.866Z,61.30
2022-07-26T09:03:51.751Z,61.30
2022-07-26T09:06:21.922Z,61.20
2022-07-26T09:08:52.158Z,61.30
2022-07-26T09:11:30.436Z,61.40
2022-07-26T09:13:58.989Z,61.30
2022-07-26T09:16:26.472Z,61.40
2022-07-26T09:18:53.805Z,61.30
2022-07-26T09:21:28.909Z,61.40
2022-07-26T09:23:56.608Z,61.40
2022-07-26T09:26:26.011Z,61.40
2022-07-26T09:29:08.053Z,61.40
2022-07-26T09:31:36.497Z,61.30
2022-07-26T09:34:05.036Z,61.40
2022-07-26T09:36:32.312Z,61.40
2022-07-26T09:39:04.251Z,61.30
2022-07-26T09:41:32.132Z,61.30
2022-07-26T09:44:00.844Z,61.40
2022-07-26T09:46:29.616Z,61.30
2022-07-26T09:49:10.436Z,61.50
2022-07-26T09:51:40.601Z,61.50
2022-07-26T09:54:09.345Z,61.50
2022-07-26T09:56:46.998Z,61.60
2022-07-26T09:59:18.765Z,61.60
2022-07-26T10:01:46.210Z,61.80
2022-07-26T10:04:14.053Z,61.60
2022-07-26T10:06:42.280Z,61.60
2022-07-26T10:09:10.470Z,61.50
2022-07-26T10:11:43.154Z,61.40
2022-07-26T10:14:39.533Z,61.40
2022-07-26T10:17:29.202Z,61.30
2022-07-26T10:19:58.712Z,61.30
2022-07-26T10:22:27.263Z,61.20
2022-07-26T10:24:58.276Z,61.30
2022-07-26T10:27:39.298Z,61.40
2022-07-26T10:30:22.472Z,61.40
2022-07-26T10:32:59.685Z,61.30
2022-07-26T10:35:44.779Z,61.40
2022-07-26T10:38:22.502Z,61.50
2022-07-26T10:40:59.491Z,61.60
2022-07-26T10:43:43.112Z,61.60
2022-07-26T10:46:16.501Z,61.60
2022-07-26T10:49:04.306Z,61.50
2022-07-26T10:51:39.403Z,61.50
2022-07-26T10:54:08.805Z,61.60
2022-07-26T10:56:36.277Z,61.40
2022-07-26T10:59:04.765Z,61.50
2022-07-26T11:01:45.418Z,61.40
2022-07-26T11:04:22.485Z,61.40
2022-07-26T11:06:49.555Z,61.30
2022-07-26T11:09:18.854Z,61.40
2022-07-26T11:11:48.508Z,61.30
2022-07-26T11:14:17.553Z,61.30
2022-07-26T11:16:48.520Z,61.30
2022-07-26T11:19:20.095Z,61.20
2022-07-26T11:21:54.382Z,60.90
2022-07-26T11:24:22.088Z,60.90
2022-07-26T11:26:49.168Z,60.90
2022-07-26T11:29:17.539Z,60.90
2022-07-26T11:31:58.675Z,60.90
2022-07-26T11:34:30.924Z,61.10
2022-07-26T11:37:00.249Z,61.00
2022-07-26T11:39:34.123Z,61.00
2022-07-26T11:42:03.621Z,61.30
2022-07-26T11:44:31.144Z,61.20
2022-07-26T11:46:58.188Z,61.40
2022-07-26T11:49:59.926Z,61.20
2022-07-26T11:52:25.259Z,61.30
2022-07-26T11:54:53.347Z,61.30
2022-07-26T11:57:20.348Z,61.30
2022-07-26T11:59:48.638Z,61.30
2022-07-26T12:02:15.906Z,61.10
2022-07-26T12:04:43.794Z,61.00
2022-07-26T12:07:11.990Z,61.00
2022-07-26T12:09:47.445Z,61.10
2022-07-26T12:12:31.094Z,61.10
2022-07-26T12:15:04.155Z,61.10
2022-07-26T12:17:34.683Z,61.10
2022-07-26T12:20:17.841Z,61.10
2022-07-26T12:22:56.110Z,61.20
2022-07-26T12:25:29.773Z,61.20
2022-07-26T12:27:56.822Z,61.10
2022-07-26T12:30:23.853Z,61.20
2022-07-26T12:32:55.236Z,61.20
2022-07-26T12:35:32.146Z,61.20
2022-07-26T12:37:59.660Z,61.10
2022-07-26T12:40:28.822Z,61.10
2022-07-26T12:43:02.093Z,61.20
2022-07-26T12:45:34.292Z,61.10
2022-07-26T12:48:03.290Z,61.20
2022-07-26T12:50:32.729Z,61.10
2022-07-26T12:53:04.742Z,61.10
2022-07-26T12:55:32.104Z,61.10
2022-07-26T12:57:59.664Z,61.10
2022-07-26T13:00:27.037Z,61.10
2022-07-26T13:02:56.864Z,61.10
2022-07-26T13:05:23.924Z,61.10
2022-07-26T13:07:54.375Z,61.10
2022-07-26T13:10:33.010Z,61.10
2022-07-26T13:13:00.795Z,61.10
2022-07-26T13:15:35.036Z,61.20
2022-07-26T13:18:05.862Z,61.10
2022-07-26T13:20:32.926Z,61.20
2022-07-26T13:22:59.739Z,61.10
2022-07-26T13:25:29.069Z,61.10
2022-07-26T13:28:00.826Z,61.00
2022-07-26T13:30:27.780Z,61.00
2022-07-26T13:32:54.637Z,61.00
2022-07-26T13:35:21.534Z,61.10
2022-07-26T13:37:48.558Z,61.00
2022-07-26T13:40:15.443Z,61.00
2022-07-26T13:42:42.291Z,61.00
2022-07-26T13:45:09.803Z,60.90
2022-07-26T13:47:36.619Z,61.00
2022-07-26T13:50:03.631Z,60.80
2022-07-26T13:52:30.530Z,60.80
2022-07-26T13:54:57.418Z,61.50
2022-07-26T13:57:24.232Z,60.80
2022-07-26T14:00:12.002Z,60.70
2022-07-26T14:02:38.886Z,60.70
2022-07-26T14:05:06.112Z,60.70
2022-07-26T14:07:33.006Z,60.70
2022-07-26T14:09:59.844Z,60.70
2022-07-26T14:12:26.698Z,60.60
2022-07-26T14:14:53.557Z,60.70
2022-07-26T14:17:20.424Z,60.70
2022-07-26T14:19:47.234Z,60.80
2022-07-26T14:22:14.126Z,60.80
2022-07-26T14:24:41.288Z,60.80
2022-07-26T14:27:08.717Z,60.80
2022-07-26T14:29:35.984Z,61.50
2022-07-26T14:32:03.576Z,60.80
2022-07-26T14:34:31.089Z,60.80
2022-07-26T14:36:58.050Z,60.80
2022-07-26T14:39:24.864Z,60.70
2022-07-26T14:41:51.756Z,60.70
2022-07-26T14:44:18.690Z,60.70
2022-07-26T14:46:46.393Z,60.70
2022-07-26T14:49:13.592Z,60.70
2022-07-26T14:51:40.644Z,60.60
2022-07-26T14:54:07.670Z,60.60
2022-07-26T14:56:36.745Z,60.60
2022-07-26T14:59:03.740Z,60.50
2022-07-26T15:01:30.851Z,60.50
2022-07-26T15:03:58.231Z,60.50
2022-07-26T15:06:25.205Z,60.50
2022-07-26T15:08:52.119Z,60.50
2022-07-26T15:11:19.012Z,60.50
2022-07-26T15:13:56.024Z,60.50
2022-07-26T15:16:23.103Z,60.50
2022-07-26T15:18:50.226Z,60.50
2022-07-26T15:21:17.473Z,60.60
2022-07-26T15:23:44.641Z,60.60
2022-07-26T15:26:11.838Z,60.60
2022-07-26T15:28:38.780Z,60.70
2022-07-26T15:31:05.601Z,60.60
2022-07-26T15:33:32.824Z,60.70
2022-07-26T15:36:03.993Z,60.70
2022-07-26T15:38:32.809Z,60.70
2022-07-26T15:40:59.796Z,60.70
2022-07-26T15:43:47.985Z,60.70
2022-07-26T15:46:14.206Z,60.80
2022-07-26T15:48:42.874Z,60.80
2022-07-26T15:51:09.711Z,60.70
2022-07-26T15:53:41.895Z,60.80
2022-07-26T15:56:12.833Z,60.80
2022-07-26T15:58:39.678Z,60.70
2022-07-26T16:01:07.090Z,60.70
2022-07-26T16:03:34.355Z,60.70
2022-07-26T16:06:05.711Z,60.80
2022-07-26T16:08:32.939Z,60.80
2022-07-26T16:10:59.932Z,60.80
2022-07-26T16:13:26.756Z,60.90
2022-07-26T16:15:53.689Z,60.80
2022-07-26T16:18:20.581Z,60.80
2022-07-26T16:20:47.470Z,60.80
2022-07-26T16:23:14.365Z,60.90
2022-07-26T16:25:41.297Z,60.80
2022-07-26T16:28:08.200Z,60.90
2022-07-26T16:30:36.865Z,60.90
2022-07-26T16:33:04.210Z,60.90
2022-07-26T16:35:31.691Z,60.90
2022-07-26T16:37:58.825Z,60.80
2022-07-26T16:40:26.004Z,60.90
2022-07-26T16:42:53.901Z,60.90
2022-07-26T16:45:21.861Z,60.90
2022-07-26T16:47:48.968Z,60.90
2022-07-26T16:50:26.928Z,60.90
2022-07-26T16:52:54.313Z,61.50
2022-07-26T16:55:21.140Z,60.80
2022-07-26T16:57:48.034Z,60.80
2022-07-26T17:00:21.953Z,60.70
2022-07-26T17:02:48.840Z,60.70
2022-07-26T17:05:15.738Z,60.60
2022-07-26T17:07:42.574Z,60.60
2022-07-26T17:10:10.234Z,60.60
2022-07-26T17:12:37.673Z,60.50
2022-07-26T17:15:05.720Z,60.60
2022-07-26T17:17:32.553Z,60.60
2022-07-26T17:19:59.430Z,60.60
2022-07-26T17:22:26.432Z,60.60
2022-07-26T17:24:53.303Z,60.60
2022-07-26T17:27:20.178Z,60.60
2022-07-26T17:29:47.030Z,60.70
2022-07-26T17:32:13.981Z,60.60
2022-07-26T17:34:40.952Z,60.60
2022-07-26T17:37:10.148Z,60.60
2022-07-26T17:39:52.221Z,60.60
2022-07-26T17:42:20.496Z,60.60
2022-07-26T17:44:47.324Z,60.70
2022-07-26T17:47:17.265Z,60.60
2022-07-26T17:49:55.820Z,60.50
2022-07-26T17:52:23.791Z,60.50
2022-07-26T17:54:50.797Z,60.50
2022-07-26T17:57:17.654Z,60.50
2022-07-26T17:59:44.487Z,60.50
2022-07-26T18:02:11.646Z,60.50
2022-07-26T18:04:38.597Z,60.50
2022-07-26T18:07:05.435Z,60.50
2022-07-26T18:09:32.358Z,60.40
2022-07-26T18:11:59.269Z,60.40
2022-07-26T18:14:26.103Z,60.40
2022-07-26T18:16:54.603Z,60.40
2022-07-26T18:19:21.996Z,60.50
2022-07-26T18:21:49.039Z,60.50
2022-07-26T18:24:17.551Z,60.40
2022-07-26T18:26:44.736Z,60.50
2022-07-26T18:29:12.027Z,60.40
2022-07-26T18:31:39.111Z,60.50
2022-07-26T18:34:06.779Z,60.40
2022-07-26T18:36:34.276Z,60.50
2022-07-26T18:39:01.147Z,60.40
2022-07-26T18:41:31.504Z,60.40
2022-07-26T18:44:01.099Z,60.50
2022-07-26T18:46:27.990Z,60.40
2022-07-26T18:48:54.942Z,60.30
2022-07-26T18:51:26.662Z,60.30
2022-07-26T18:53:54.040Z,60.40
2022-07-26T18:56:20.870Z,60.30
2022-07-26T18:58:47.727Z,60.50
2022-07-26T19:01:14.648Z,60.50
2022-07-26T19:03:41.620Z,60.50
2022-07-26T19:06:09.043Z,60.40
2022-07-26T19:08:36.104Z,60.50
2022-07-26T19:11:02.918Z,60.60
2022-07-26T19:13:29.996Z,60.50
2022-07-26T19:15:56.908Z,60.60
2022-07-26T19:18:23.812Z,60.70
2022-07-26T19:20:50.958Z,60.50
2022-07-26T19:23:17.954Z,60.60
2022-07-26T19:25:44.900Z,60.60
2022-07-26T19:28:14.146Z,60.60
2022-07-26T19:30:41.032Z,60.60
2022-07-26T19:33:07.871Z,60.60
2022-07-26T19:35:34.929Z,60.60
2022-07-26T19:38:01.833Z,60.60
2022-07-26T19:40:30.268Z,60.60
2022-07-26T19:42:57.194Z,60.50
2022-07-26T19:45:24.463Z,60.50
2022-07-26T19:47:51.507Z,60.50
2022-07-26T19:50:18.580Z,60.50
2022-07-26T19:52:45.426Z,60.40
2022-07-26T19:55:12.385Z,60.40
2022-07-26T19:57:39.336Z,60.60
2022-07-26T20:00:07.489Z,60.50
2022-07-26T20:02:41.347Z,60.50
2022-07-26T20:05:11.713Z,60.50
2022-07-26T20:07:39.181Z,60.60
2022-07-26T20:10:07.209Z,60.60
2022-07-26T20:12:34.909Z,60.40
2022-07-26T20:15:01.864Z,60.50
2022-07-26T20:17:33.237Z,60.70
2022-07-26T20:20:00.287Z,60.60
2022-07-26T20:22:27.134Z,60.60
2022-07-26T20:24:56.192Z,60.70
2022-07-26T20:27:25.819Z,60.60
2022-07-26T20:29:56.174Z,60.70
2022-07-26T20:32:26.467Z,60.70
2022-07-26T20:34:53.335Z,60.60
2022-07-26T20:37:20.229Z,60.50
2022-07-26T20:39:47.158Z,60.60
2022-07-26T20:42:21.291Z,60.60
2022-07-26T20:44:48.884Z,60.70
2022-07-26T20:47:15.777Z,60.80
2022-07-26T20:49:42.701Z,60.80
2022-07-26T20:52:09.725Z,60.80
2022-07-26T20:54:36.700Z,60.80
2022-07-26T20:57:04.197Z,60.80
2022-07-26T20:59:32.385Z,60.80
2022-07-26T21:01:59.410Z,60.80
2022-07-26T21:04:26.545Z,60.80
2022-07-26T21:06:53.402Z,60.80
2022-07-26T21:09:20.418Z,60.80
2022-07-26T21:11:47.359Z,60.80
2022-07-26T21:14:14.179Z,60.90
2022-07-26T21:16:41.160Z,60.80
2022-07-26T21:19:08.282Z,60.80
2022-07-26T21:21:37.032Z,60.70
2022-07-26T21:24:05.830Z,60.70
2022-07-26T21:26:34.229Z,60.80
2022-07-26T21:29:01.152Z,60.80
2022-07-26T21:31:28.056Z,60.70
2022-07-26T21:33:54.927Z,60.70
2022-07-26T21:36:21.751Z,60.80
2022-07-26T21:38:48.592Z,60.70
2022-07-26T21:41:15.474Z,60.80
2022-07-26T21:43:42.311Z,60.80
2022-07-26T21:46:12.615Z,60.80
2022-07-26T21:48:40.194Z,60.80
2022-07-26T21:51:07.308Z,60.90
2022-07-26T21:53:35.373Z,60.90
2022-07-26T21:56:02.278Z,60.90
2022-07-26T21:58:32.157Z,60.90
2022-07-26T22:01:06.655Z,60.90
2022-07-26T22:03:35.503Z,61.00
2022-07-26T22:06:02.463Z,61.00
2022-07-26T22:08:29.628Z,60.90
2022-07-26T22:10:56.484Z,61.00
2022-07-26T22:13:23.395Z,60.90
2022-07-26T22:15:50.731Z,60.90
2022-07-26T22:18:20.206Z,60.80
2022-07-26T22:20:49.108Z,60.80
2022-07-26T22:23:17.275Z,60.80
2022-07-26T22:25:44.390Z,60.60
2022-07-26T22:28:12.488Z,60.60
2022-07-26T22:30:45.877Z,60.60
2022-07-26T22:33:12.839Z,60.60
2022-07-26T22:35:40.082Z,60.50
2022-07-26T22:38:10.415Z,60.50
2022-07-26T22:40:38.648Z,60.50
2022-07-26T22:43:05.620Z,60.40
2022-07-26T22:45:33.738Z,60.50
2022-07-26T22:48:02.666Z,60.40
2022-07-26T22:50:29.658Z,60.40
2022-07-26T22:52:56.676Z,60.30
2022-07-26T22:55:24.318Z,60.30
2022-07-26T22:57:51.179Z,60.30
2022-07-26T23:00:19.713Z,60.40
2022-07-26T23:02:47.859Z,60.40
2022-07-26T23:05:16.314Z,60.40
2022-07-26T23:07:48.059Z,60.30
2022-07-26T23:10:16.517Z,60.30
2022-07-26T23:12:43.779Z,60.30
2022-07-26T23:15:11.002Z,60.20
2022-07-26T23:17:38.407Z,60.30
2022-07-26T23:20:07.007Z,60.20
2022-07-26T23:22:34.333Z,60.20
2022-07-26T23:25:01.174Z,60.20
2022-07-26T23:27:27.979Z,60.20
2022-07-26T23:29:55.422Z,60.20
2022-07-26T23:32:22.455Z,60.30
2022-07-26T23:34:49.304Z,60.20
2022-07-26T23:37:16.141Z,60.20
2022-07-26T23:39:43.117Z,60.20
2022-07-26T23:42:10.002Z,60.20
2022-07-26T23:44:36.816Z,60.20
2022-07-26T23:47:03.877Z,60.20
2022-07-26T23:49:30.875Z,60.10
2022-07-26T23:51:57.764Z,60.00
2022-07-26T23:54:24.736Z,60.00
2022-07-26T23:56:51.676Z,60.40
2022-07-26T23:59:18.606Z,60.30
